createdAt,value
2023-01-09T00:02:12.537Z,7.82
2023-01-09T00:04:39.643Z,7.79
2023-01-09T00:07:09.442Z,7.90
2023-01-09T00:09:36.489Z,7.89
2023-01-09T00:12:03.702Z,7.89
2023-01-09T00:14:33.294Z,7.98
2023-01-09T00:17:00.433Z,7.69
2023-01-09T00:19:29.905Z,7.56
2023-01-09T00:21:57.687Z,7.43
2023-01-09T00:24:24.808Z,7.60
2023-01-09T00:26:51.517Z,7.63
2023-01-09T00:29:18.532Z,7.69
2023-01-09T00:31:45.202Z,7.83
2023-01-09T00:34:13.418Z,7.78
2023-01-09T00:36:40.099Z,7.80
2023-01-09T00:39:07.128Z,7.76
2023-01-09T00:41:42.459Z,7.82
2023-01-09T00:44:21.903Z,7.94
2023-01-09T00:46:54.823Z,7.77
2023-01-09T00:49:21.832Z,7.80
2023-01-09T00:51:48.594Z,7.73
2023-01-09T00:54:16.645Z,7.02
2023-01-09T00:56:43.412Z,6.59
2023-01-09T00:59:10.468Z,6.43
2023-01-09T01:01:38.377Z,6.35
2023-01-09T01:04:05.486Z,6.39
2023-01-09T01:06:32.542Z,5.96
2023-01-09T01:08:59.262Z,5.52
2023-01-09T01:11:25.979Z,5.46
2023-01-09T01:13:52.661Z,5.50
2023-01-09T01:16:19.549Z,5.55
2023-01-09T01:18:46.631Z,5.43
2023-01-09T01:21:13.721Z,5.33
2023-01-09T01:23:41.620Z,5.33
2023-01-09T01:26:13.123Z,5.48
2023-01-09T01:28:42.704Z,5.76
2023-01-09T01:31:09.445Z,5.92
2023-01-09T01:33:39.062Z,6.06
2023-01-09T01:36:07.567Z,6.44
2023-01-09T01:38:34.568Z,6.36
2023-01-09T01:41:01.520Z,6.10
2023-01-09T01:43:28.496Z,5.87
2023-01-09T01:45:55.460Z,5.92
2023-01-09T01:48:29.477Z,5.79
2023-01-09T01:51:04.219Z,5.42
2023-01-09T01:53:48.410Z,5.30
2023-01-09T01:56:19.666Z,5.50
2023-01-09T01:58:49.748Z,5.14
2023-01-09T02:01:16.578Z,5.05
2023-01-09T02:03:48.367Z,5.03
2023-01-09T02:06:15.663Z,5.06
2023-01-09T02:08:42.358Z,5.20
2023-01-09T02:11:09.398Z,5.14
2023-01-09T02:13:36.280Z,5.26
2023-01-09T02:16:41.416Z,5.48
2023-01-09T02:19:31.711Z,5.56
2023-01-09T02:22:21.769Z,5.57
2023-01-09T02:25:03.418Z,5.53
2023-01-09T02:28:01.083Z,5.41
2023-01-09T02:30:36.769Z,5.57
2023-01-09T02:33:20.541Z,5.46
2023-01-09T02:36:05.149Z,5.47
2023-01-09T02:38:32.189Z,5.47
2023-01-09T02:41:00.624Z,5.44
2023-01-09T02:43:27.440Z,5.43
2023-01-09T02:45:54.497Z,5.47
2023-01-09T02:48:21.373Z,5.48
2023-01-09T02:50:55.996Z,5.42
2023-01-09T02:53:50.524Z,5.45
2023-01-09T02:56:44.465Z,5.49
2023-01-09T02:59:42.577Z,5.59
2023-01-09T03:02:33.346Z,5.50
2023-01-09T03:05:22.710Z,5.38
2023-01-09T03:07:55.950Z,5.37
2023-01-09T03:10:30.595Z,5.47
2023-01-09T03:12:59.002Z,5.42
2023-01-09T03:15:28.169Z,5.44
2023-01-09T03:17:55.285Z,5.44
2023-01-09T03:20:22.961Z,5.62
2023-01-09T03:23:01.976Z,5.78
2023-01-09T03:25:29.233Z,6.18
2023-01-09T03:27:58.149Z,6.28
2023-01-09T03:30:26.237Z,6.13
2023-01-09T03:32:56.393Z,5.86
2023-01-09T03:35:23.171Z,5.75
2023-01-09T03:37:49.949Z,5.80
2023-01-09T03:40:19.772Z,5.97
2023-01-09T03:42:47.898Z,5.82
2023-01-09T03:45:14.763Z,5.60
2023-01-09T03:47:41.796Z,5.45
2023-01-09T03:50:08.765Z,5.14
2023-01-09T03:52:35.472Z,4.92
2023-01-09T03:55:02.254Z,4.72
2023-01-09T03:57:29.341Z,4.61
2023-01-09T03:59:57.187Z,4.59
2023-01-09T04:02:26.795Z,4.72
2023-01-09T04:04:53.861Z,4.70
2023-01-09T04:07:21.304Z,4.88
2023-01-09T04:09:48.341Z,5.04
2023-01-09T04:12:16.286Z,5.10
2023-01-09T04:14:43.481Z,4.97
2023-01-09T04:17:13.284Z,5.02
2023-01-09T04:19:42.997Z,4.99
2023-01-09T04:22:10.059Z,5.17
2023-01-09T04:24:37.146Z,5.38
2023-01-09T04:27:03.910Z,5.49
2023-01-09T04:29:30.649Z,5.26
2023-01-09T04:31:57.689Z,5.15
2023-01-09T04:34:24.410Z,5.00
2023-01-09T04:36:51.908Z,5.10
2023-01-09T04:39:18.639Z,5.09
2023-01-09T04:41:45.330Z,5.08
2023-01-09T04:44:12.039Z,5.36
2023-01-09T04:46:38.744Z,5.48
2023-01-09T04:49:05.735Z,5.19
2023-01-09T04:51:33.493Z,5.15
2023-01-09T04:54:00.485Z,5.26
2023-01-09T04:56:30.261Z,5.22
2023-01-09T04:58:57.069Z,5.22
2023-01-09T05:01:23.933Z,5.43
2023-01-09T05:03:50.744Z,5.62
2023-01-09T05:06:17.480Z,6.04
2023-01-09T05:08:44.543Z,5.41
2023-01-09T05:11:12.264Z,4.81
2023-01-09T05:13:40.151Z,5.16
2023-01-09T05:16:08.435Z,5.28
2023-01-09T05:18:35.211Z,5.11
2023-01-09T05:21:02.297Z,5.39
2023-01-09T05:23:29.029Z,5.35
2023-01-09T05:25:58.849Z,5.47
2023-01-09T05:28:25.932Z,5.57
2023-01-09T05:30:52.622Z,5.97
2023-01-09T05:33:19.420Z,5.17
2023-01-09T05:35:46.462Z,5.31
2023-01-09T05:38:16.157Z,4.97
2023-01-09T05:40:43.341Z,5.06
2023-01-09T05:43:10.359Z,4.88
2023-01-09T05:45:37.063Z,4.85
2023-01-09T05:48:04.486Z,4.72
2023-01-09T05:50:31.501Z,4.83
2023-01-09T05:52:58.228Z,4.74
2023-01-09T05:55:27.730Z,4.83
2023-01-09T05:57:57.492Z,4.89
2023-01-09T06:00:24.741Z,5.08
2023-01-09T06:02:51.918Z,5.25
2023-01-09T06:05:18.660Z,4.99
2023-01-09T06:07:45.727Z,4.86
2023-01-09T06:10:13.202Z,4.93
2023-01-09T06:12:41.664Z,5.04
2023-01-09T06:15:10.627Z,4.99
2023-01-09T06:17:38.785Z,5.23
2023-01-09T06:20:06.593Z,5.30
2023-01-09T06:22:33.992Z,5.39
2023-01-09T06:25:03.622Z,5.35
2023-01-09T06:27:30.665Z,5.21
2023-01-09T06:29:57.690Z,5.18
2023-01-09T06:32:24.391Z,5.29
2023-01-09T06:34:51.385Z,5.18
2023-01-09T06:37:18.441Z,5.11
2023-01-09T06:39:45.496Z,5.29
2023-01-09T06:42:12.557Z,5.20
2023-01-09T06:44:39.552Z,5.40
2023-01-09T06:47:06.883Z,5.31
2023-01-09T06:49:36.486Z,5.25
2023-01-09T06:52:03.641Z,5.29
2023-01-09T06:54:30.766Z,5.61
2023-01-09T06:56:57.853Z,5.47
2023-01-09T06:59:27.616Z,5.18
2023-01-09T07:01:54.489Z,5.45
2023-01-09T07:04:21.633Z,5.03
2023-01-09T07:06:50.203Z,5.41
2023-01-09T07:09:17.333Z,5.36
2023-01-09T07:11:44.064Z,5.09
2023-01-09T07:14:12.264Z,5.29
2023-01-09T07:16:39.791Z,5.46
2023-01-09T07:19:06.822Z,5.28
2023-01-09T07:21:33.589Z,5.30
2023-01-09T07:24:00.685Z,5.43
2023-01-09T07:26:30.240Z,5.15
2023-01-09T07:28:58.017Z,5.17
2023-01-09T07:31:25.121Z,5.47
2023-01-09T07:33:51.920Z,5.18
2023-01-09T07:36:18.980Z,5.20
2023-01-09T07:38:46.038Z,5.03
2023-01-09T07:41:15.870Z,5.05
2023-01-09T07:43:42.950Z,5.03
2023-01-09T07:46:10.088Z,4.99
2023-01-09T07:48:37.567Z,5.04
2023-01-09T07:51:05.252Z,5.05
2023-01-09T07:53:33.383Z,5.17
2023-01-09T07:56:01.380Z,5.13
2023-01-09T07:58:28.663Z,5.04
2023-01-09T08:00:55.787Z,5.35
2023-01-09T08:03:24.062Z,5.67
2023-01-09T08:05:51.700Z,5.51
2023-01-09T08:08:18.993Z,5.61
2023-01-09T08:10:46.173Z,5.69
2023-01-09T08:13:13.335Z,5.71
2023-01-09T08:15:41.317Z,5.52
2023-01-09T08:18:08.318Z,5.41
2023-01-09T08:20:35.240Z,5.45
2023-01-09T08:23:02.780Z,5.60
2023-01-09T08:25:31.173Z,5.54
2023-01-09T08:27:59.205Z,5.36
2023-01-09T08:30:26.128Z,5.44
2023-01-09T08:32:56.070Z,5.54
2023-01-09T08:35:25.836Z,5.38
2023-01-09T08:37:52.700Z,5.33
2023-01-09T08:40:19.912Z,5.45
2023-01-09T08:42:47.039Z,5.68
2023-01-09T08:45:13.833Z,5.39
2023-01-09T08:47:42.022Z,5.28
2023-01-09T08:50:10.356Z,5.25
2023-01-09T08:52:37.397Z,5.28
2023-01-09T08:55:04.677Z,5.25
2023-01-09T08:57:32.785Z,5.95
2023-01-09T09:00:00.569Z,6.11
2023-01-09T09:02:27.758Z,6.00
2023-01-09T09:04:54.863Z,6.33
2023-01-09T09:07:24.750Z,6.30
2023-01-09T09:09:51.949Z,6.13
2023-01-09T09:12:24.624Z,6.22
2023-01-09T09:14:52.716Z,6.13
2023-01-09T09:17:20.215Z,6.39
2023-01-09T09:19:47.427Z,6.00
2023-01-09T09:22:15.604Z,5.85
2023-01-09T09:24:42.284Z,5.54
2023-01-09T09:27:09.724Z,5.51
2023-01-09T09:29:36.795Z,5.60
2023-01-09T09:32:03.559Z,5.31
2023-01-09T09:34:30.659Z,5.42
2023-01-09T09:36:57.642Z,5.18
2023-01-09T09:39:24.813Z,5.11
2023-01-09T09:42:23.910Z,5.29
2023-01-09T09:45:10.044Z,5.05
2023-01-09T09:47:50.920Z,4.87
2023-01-09T09:50:49.694Z,4.73
2023-01-09T09:53:24.694Z,4.77
2023-01-09T09:55:51.433Z,4.74
2023-01-09T09:58:34.562Z,4.63
2023-01-09T10:01:01.349Z,4.55
2023-01-09T10:03:40.227Z,4.25
2023-01-09T10:06:21.312Z,4.05
2023-01-09T10:09:28.533Z,4.00
2023-01-09T10:12:26.660Z,3.94
2023-01-09T10:14:55.994Z,3.84
2023-01-09T10:17:33.055Z,3.88
2023-01-09T10:20:27.489Z,3.91
2023-01-09T10:23:14.526Z,3.67
2023-01-09T10:26:27.614Z,3.62
2023-01-09T10:29:06.464Z,3.65
2023-01-09T10:31:51.130Z,3.86
2023-01-09T10:34:51.775Z,4.01
2023-01-09T10:37:37.044Z,4.05
2023-01-09T10:40:30.301Z,4.15
2023-01-09T10:43:06.018Z,4.23
2023-01-09T10:45:41.897Z,4.01
2023-01-09T10:48:25.693Z,4.17
2023-01-09T10:50:52.848Z,3.84
2023-01-09T10:53:27.127Z,4.03
2023-01-09T10:55:55.949Z,3.95
2023-01-09T10:58:22.791Z,3.86
2023-01-09T11:00:51.060Z,3.93
2023-01-09T11:03:21.570Z,3.80
2023-01-09T11:05:54.258Z,3.89
2023-01-09T11:08:37.148Z,3.94
2023-01-09T11:11:03.885Z,4.19
2023-01-09T11:13:31.981Z,4.28
2023-01-09T11:15:59.493Z,4.43
2023-01-09T11:18:26.355Z,4.57
2023-01-09T11:20:53.034Z,4.61
2023-01-09T11:23:35.234Z,4.37
2023-01-09T11:26:02.248Z,4.68
2023-01-09T11:28:31.975Z,4.28
2023-01-09T11:31:00.198Z,4.32
2023-01-09T11:33:31.829Z,4.28
2023-01-09T11:36:11.177Z,4.28
2023-01-09T11:38:49.434Z,4.29
2023-01-09T11:41:19.602Z,4.32
2023-01-09T11:43:47.842Z,4.67
2023-01-09T11:46:36.870Z,4.62
2023-01-09T11:49:24.146Z,4.68
2023-01-09T11:52:26.551Z,4.69
2023-01-09T11:54:59.242Z,5.03
2023-01-09T11:57:26.060Z,5.05
2023-01-09T11:59:52.763Z,5.24
2023-01-09T12:02:53.864Z,5.27
2023-01-09T12:05:28.307Z,5.28
2023-01-09T12:08:10.556Z,5.30
2023-01-09T12:10:43.036Z,5.25
2023-01-09T12:13:45.026Z,5.29
2023-01-09T12:16:30.586Z,4.87
2023-01-09T12:19:18.605Z,4.93
2023-01-09T12:22:19.601Z,4.97
2023-01-09T12:24:46.120Z,4.91
2023-01-09T12:27:34.175Z,4.76
2023-01-09T12:30:26.345Z,4.65
2023-01-09T12:33:17.934Z,4.57
2023-01-09T12:35:47.501Z,4.56
2023-01-09T12:38:28.268Z,4.36
2023-01-09T12:41:14.121Z,4.30
2023-01-09T12:43:46.836Z,4.49
2023-01-09T12:46:24.443Z,4.58
2023-01-09T12:48:54.107Z,4.45
2023-01-09T12:51:43.579Z,4.52
2023-01-09T12:54:29.537Z,4.78
2023-01-09T12:57:00.351Z,4.48
2023-01-09T12:59:35.345Z,4.60
2023-01-09T13:03:00.603Z,4.56
2023-01-09T13:05:41.684Z,4.61
2023-01-09T13:08:12.730Z,4.49
2023-01-09T13:10:40.750Z,4.36
2023-01-09T13:13:47.220Z,4.44
2023-01-09T13:16:17.984Z,4.43
2023-01-09T13:19:15.355Z,4.34
2023-01-09T13:21:43.561Z,4.39
2023-01-09T13:24:31.555Z,4.16
2023-01-09T13:27:12.491Z,3.95
2023-01-09T13:29:41.653Z,3.68
2023-01-09T13:32:51.402Z,3.15
2023-01-09T13:35:24.615Z,3.00
2023-01-09T13:37:54.706Z,2.86
2023-01-09T13:40:22.168Z,2.75
2023-01-09T13:43:08.826Z,2.22
2023-01-09T13:45:37.210Z,1.95
2023-01-09T13:48:17.068Z,1.96
2023-01-09T13:50:45.074Z,1.98
2023-01-09T13:53:18.106Z,2.34
2023-01-09T13:56:07.515Z,2.57
2023-01-09T13:58:37.221Z,2.57
2023-01-09T14:01:05.588Z,2.37
2023-01-09T14:03:39.307Z,2.89
2023-01-09T14:06:11.442Z,3.23
2023-01-09T14:08:40.900Z,3.23
2023-01-09T14:11:20.918Z,3.10
2023-01-09T14:13:51.882Z,2.82
2023-01-09T14:16:21.462Z,3.10
2023-01-09T14:19:00.687Z,2.96
2023-01-09T14:21:27.518Z,2.80
2023-01-09T14:24:05.235Z,3.24
2023-01-09T14:26:45.986Z,3.76
2023-01-09T14:29:41.128Z,3.89
2023-01-09T14:32:35.311Z,3.97
2023-01-09T14:35:13.683Z,4.51
2023-01-09T14:37:41.081Z,4.59
2023-01-09T14:40:20.028Z,4.64
2023-01-09T14:42:46.938Z,4.97
2023-01-09T14:45:22.343Z,4.99
2023-01-09T14:47:58.521Z,4.47
2023-01-09T14:50:53.031Z,4.64
2023-01-09T14:53:27.864Z,3.93
2023-01-09T14:56:02.536Z,4.01
2023-01-09T14:58:32.793Z,3.99
2023-01-09T15:01:03.097Z,3.89
2023-01-09T15:03:42.910Z,4.05
2023-01-09T15:06:13.398Z,4.10
2023-01-09T15:08:44.250Z,3.83
2023-01-09T15:11:12.509Z,3.64
2023-01-09T15:13:44.250Z,3.70
2023-01-09T15:16:22.015Z,3.65
2023-01-09T15:18:51.075Z,4.00
2023-01-09T15:21:19.947Z,3.92
2023-01-09T15:23:46.793Z,4.09
2023-01-09T15:26:27.336Z,3.57
2023-01-09T15:29:00.099Z,3.62
2023-01-09T15:31:26.838Z,3.35
2023-01-09T15:33:56.577Z,3.27
2023-01-09T15:36:24.978Z,3.52
2023-01-09T15:38:51.824Z,3.13
2023-01-09T15:41:23.459Z,3.01
2023-01-09T15:43:50.264Z,2.95
2023-01-09T15:46:17.012Z,3.34
2023-01-09T15:48:44.787Z,3.76
2023-01-09T15:51:14.440Z,4.56
2023-01-09T15:53:41.483Z,4.65
2023-01-09T15:56:26.841Z,4.63
2023-01-09T15:58:57.766Z,3.99
2023-01-09T16:01:34.529Z,3.87
2023-01-09T16:04:30.242Z,3.69
2023-01-09T16:06:58.363Z,3.67
2023-01-09T16:09:28.968Z,3.65
2023-01-09T16:11:59.954Z,3.58
2023-01-09T16:14:37.370Z,3.47
2023-01-09T16:17:07.306Z,3.57
2023-01-09T16:19:50.030Z,3.91
2023-01-09T16:22:29.866Z,3.93
2023-01-09T16:25:01.561Z,4.17
2023-01-09T16:27:32.190Z,4.15
2023-01-09T16:30:28.342Z,4.06
2023-01-09T16:32:55.011Z,3.95
2023-01-09T16:35:22.347Z,4.01
2023-01-09T16:37:51.892Z,4.11
2023-01-09T16:40:18.519Z,4.26
2023-01-09T16:42:45.289Z,4.11
2023-01-09T16:45:13.524Z,4.11
2023-01-09T16:47:41.365Z,4.00
2023-01-09T16:50:12.128Z,3.75
2023-01-09T16:52:39.032Z,3.93
2023-01-09T16:55:09.101Z,3.86
2023-01-09T16:57:35.828Z,3.93
2023-01-09T17:00:05.616Z,3.98
2023-01-09T17:02:38.145Z,4.01
2023-01-09T17:05:06.286Z,4.01
2023-01-09T17:07:33.001Z,3.72
2023-01-09T17:10:00.702Z,3.87
2023-01-09T17:12:28.149Z,4.30
2023-01-09T17:14:57.898Z,4.19
2023-01-09T17:17:24.627Z,3.87
2023-01-09T17:19:51.293Z,3.92
2023-01-09T17:22:18.045Z,4.23
2023-01-09T17:24:44.864Z,4.25
2023-01-09T17:27:20.913Z,3.85
2023-01-09T17:29:48.302Z,3.77
2023-01-09T17:32:16.157Z,3.64
2023-01-09T17:34:43.154Z,3.66
2023-01-09T17:37:19.204Z,3.67
2023-01-09T17:39:48.992Z,3.72
2023-01-09T17:42:27.049Z,3.61
2023-01-09T17:44:53.908Z,3.59
2023-01-09T17:47:21.192Z,3.81
2023-01-09T17:49:50.358Z,3.92
2023-01-09T17:52:17.556Z,3.83
2023-01-09T17:54:45.530Z,3.78
2023-01-09T17:57:15.987Z,3.80
2023-01-09T17:59:43.569Z,3.96
2023-01-09T18:02:22.745Z,3.68
2023-01-09T18:04:52.401Z,3.64
2023-01-09T18:07:19.137Z,3.71
2023-01-09T18:09:56.773Z,3.65
2023-01-09T18:12:23.885Z,3.52
2023-01-09T18:14:52.322Z,3.43
2023-01-09T18:17:22.121Z,3.46
2023-01-09T18:19:48.846Z,3.59
2023-01-09T18:22:17.914Z,3.48
2023-01-09T18:24:46.298Z,3.55
2023-01-09T18:27:14.705Z,3.65
2023-01-09T18:29:41.380Z,3.72
2023-01-09T18:32:08.577Z,3.81
2023-01-09T18:34:37.411Z,3.55
2023-01-09T18:37:05.285Z,3.75
2023-01-09T18:39:33.061Z,3.75
2023-01-09T18:41:59.795Z,3.98
2023-01-09T18:44:26.529Z,4.29
2023-01-09T18:46:54.296Z,4.33
2023-01-09T18:49:21.376Z,4.04
2023-01-09T18:51:49.433Z,3.82
2023-01-09T18:54:16.635Z,3.99
2023-01-09T18:56:43.876Z,3.87
2023-01-09T18:59:13.401Z,3.74
2023-01-09T19:01:41.442Z,3.72
2023-01-09T19:04:08.867Z,3.78
2023-01-09T19:06:36.928Z,3.93
2023-01-09T19:09:04.270Z,4.00
2023-01-09T19:11:31.091Z,3.75
2023-01-09T19:13:57.828Z,3.54
2023-01-09T19:16:26.034Z,3.51
2023-01-09T19:18:56.477Z,3.72
2023-01-09T19:21:23.641Z,3.63
2023-01-09T19:23:50.408Z,3.59
2023-01-09T19:26:24.421Z,3.32
2023-01-09T19:28:52.769Z,3.34
2023-01-09T19:31:20.844Z,3.24
2023-01-09T19:33:48.149Z,3.16
2023-01-09T19:36:17.650Z,3.53
2023-01-09T19:38:44.418Z,3.66
2023-01-09T19:41:20.174Z,3.68
2023-01-09T19:43:49.951Z,3.88
2023-01-09T19:46:18.698Z,3.80
2023-01-09T19:48:48.565Z,4.14
2023-01-09T19:51:16.634Z,4.06
2023-01-09T19:53:51.041Z,3.81
2023-01-09T19:56:22.999Z,3.36
2023-01-09T19:58:55.443Z,3.41
2023-01-09T20:01:25.526Z,3.07
2023-01-09T20:03:52.491Z,3.30
2023-01-09T20:06:21.241Z,3.28
2023-01-09T20:08:48.297Z,3.34
2023-01-09T20:11:16.426Z,3.39
2023-01-09T20:13:44.546Z,3.15
2023-01-09T20:16:15.919Z,3.44
2023-01-09T20:18:45.588Z,3.58
2023-01-09T20:21:18.387Z,3.34
2023-01-09T20:23:45.181Z,3.01
2023-01-09T20:26:12.088Z,3.23
2023-01-09T20:28:39.778Z,3.29
2023-01-09T20:31:14.503Z,3.01
2023-01-09T20:33:45.588Z,3.10
2023-01-09T20:36:13.455Z,3.49
2023-01-09T20:38:46.686Z,3.41
2023-01-09T20:41:17.519Z,3.46
2023-01-09T20:43:45.903Z,3.44
2023-01-09T20:46:12.693Z,3.33
2023-01-09T20:48:40.098Z,3.23
2023-01-09T20:51:07.938Z,3.05
2023-01-09T20:53:35.675Z,3.49
2023-01-09T20:56:04.612Z,3.55
2023-01-09T20:58:33.784Z,3.89
2023-01-09T21:01:10.934Z,4.06
2023-01-09T21:03:41.154Z,4.58
2023-01-09T21:06:27.583Z,4.05
2023-01-09T21:08:54.421Z,3.80
2023-01-09T21:11:25.292Z,3.38
2023-01-09T21:13:52.220Z,3.16
2023-01-09T21:16:21.657Z,3.01
2023-01-09T21:18:48.775Z,3.22
2023-01-09T21:21:17.521Z,3.34
2023-01-09T21:24:23.483Z,2.98
2023-01-09T21:26:51.214Z,3.36
2023-01-09T21:29:18.292Z,3.18
2023-01-09T21:31:46.196Z,3.19
2023-01-09T21:34:13.659Z,3.36
2023-01-09T21:36:41.039Z,3.52
2023-01-09T21:39:10.591Z,3.34
2023-01-09T21:41:45.265Z,3.56
2023-01-09T21:44:13.442Z,3.76
2023-01-09T21:46:40.182Z,3.45
2023-01-09T21:49:08.240Z,3.19
2023-01-09T21:51:37.054Z,3.40
2023-01-09T21:54:11.069Z,3.48
2023-01-09T21:56:42.209Z,3.90
2023-01-09T21:59:09.165Z,4.03
2023-01-09T22:01:44.780Z,4.08
2023-01-09T22:04:16.951Z,3.84
2023-01-09T22:06:44.456Z,3.82
2023-01-09T22:09:11.597Z,4.19
2023-01-09T22:11:45.951Z,4.04
2023-01-09T22:14:17.515Z,3.97
2023-01-09T22:16:48.241Z,3.80
2023-01-09T22:19:15.316Z,3.54
2023-01-09T22:21:42.424Z,3.70
2023-01-09T22:24:12.049Z,3.78
2023-01-09T22:26:38.744Z,3.97
2023-01-09T22:29:05.499Z,4.49
2023-01-09T22:31:35.937Z,4.36
2023-01-09T22:34:10.183Z,3.87
2023-01-09T22:36:39.629Z,3.84
2023-01-09T22:39:06.535Z,3.75
2023-01-09T22:41:36.707Z,3.63
2023-01-09T22:44:04.490Z,3.54
2023-01-09T22:46:33.470Z,3.49
2023-01-09T22:49:01.506Z,3.48
2023-01-09T22:51:35.265Z,3.48
2023-01-09T22:54:05.723Z,3.34
2023-01-09T22:56:33.239Z,3.46
2023-01-09T22:59:02.760Z,3.35
2023-01-09T23:01:29.484Z,3.10
2023-01-09T23:03:56.153Z,3.01
2023-01-09T23:06:24.602Z,2.61
2023-01-09T23:08:54.486Z,2.48
2023-01-09T23:11:27.174Z,2.47
2023-01-09T23:13:53.954Z,2.57
2023-01-09T23:16:23.956Z,2.73
2023-01-09T23:18:51.701Z,2.99
2023-01-09T23:21:21.267Z,3.02
2023-01-09T23:23:48.091Z,2.92
2023-01-09T23:26:14.812Z,2.82
2023-01-09T23:28:55.575Z,2.85
2023-01-09T23:31:23.706Z,2.96
2023-01-09T23:33:50.369Z,2.98
2023-01-09T23:36:17.344Z,3.13
2023-01-09T23:38:45.943Z,3.39
2023-01-09T23:41:13.904Z,3.48
2023-01-09T23:43:43.936Z,3.32
2023-01-09T23:46:11.159Z,3.81
2023-01-09T23:48:38.090Z,3.87
2023-01-09T23:51:05.421Z,3.40
2023-01-09T23:53:34.810Z,3.91
2023-01-09T23:56:04.429Z,3.50
2023-01-09T23:58:31.755Z,4.09
